Time;durP1;ratioP1;P1;durP2;ratioP2;P2;SDS_P1;SDS_P2;PMS_P1;PMS_P2;Temp;Humidity;BMP_temperature;BMP_pressure;BME280_temperature;BME280_humidity;BME280_pressure;Samples;Min_cycle;Max_cycle;Signal;HPM_P1;HPM_P2
2022/11/02 00:01:38;;;;;;;;;;;10.80;99.90;;;;;;4978246;28;19933;-74
2022/11/02 00:04:10;;;;;;;;;;;10.70;99.90;;;;;;5010469;28;19948;-74
2022/11/02 00:06:42;;;;;;;;;;;10.60;99.90;;;;;;4974522;28;19930;-74
2022/11/02 00:09:09;;;;;;;;;;;10.70;99.90;;;;;;4992483;28;19929;-74
2022/11/02 00:11:41;;;;;;;;;;;10.80;99.90;;;;;;4975746;28;19933;-74
2022/11/02 00:14:12;;;;;;;;;;;11.00;99.90;;;;;;5010899;28;19929;-73
2022/11/02 00:16:44;;;;;;;;;;;11.00;99.90;;;;;;4993553;28;19976;-73
2022/11/02 00:19:16;;;;;;;;;;;11.10;99.90;;;;;;4986692;28;20338;-73
2022/11/02 00:21:47;;;;;;;;;;;11.20;99.90;;;;;;5010772;28;19933;-73
2022/11/02 00:24:19;;;;;;;;;;;11.30;99.90;;;;;;5011316;28;19932;-73
2022/11/02 00:26:51;;;;;;;;;;;11.40;99.90;;;;;;4993951;28;19925;-72
2022/11/02 00:29:23;;;;;;;;;;;11.50;99.90;;;;;;5004883;28;19941;-73
2022/11/02 00:31:55;;;;;;;;;;;11.60;99.90;;;;;;4988811;28;19936;-73
2022/11/02 00:34:27;;;;;;;;;;;11.60;99.90;;;;;;4992261;28;20020;-72
2022/11/02 00:36:59;;;;;;;;;;;11.60;99.90;;;;;;4993482;28;19987;-73
2022/11/02 00:39:30;;;;;;;;;;;11.70;99.90;;;;;;4992424;28;20256;-73
2022/11/02 00:42:03;;;;;;;;;;;11.70;99.90;;;;;;4994269;28;19936;-73
2022/11/02 00:44:31;;;;;;;;;;;11.80;99.90;;;;;;4991360;28;20374;-73
2022/11/02 00:47:02;;;;;;;;;;;11.70;99.90;;;;;;4973896;28;19929;-72
2022/11/02 00:49:34;;;;;;;;;;;11.70;99.90;;;;;;5010174;28;20001;-71
2022/11/02 00:52:07;;;;;;;;;;;11.70;99.90;;;;;;4990875;28;20299;-72
2022/11/02 00:54:39;;;;;;;;;;;11.70;99.90;;;;;;4975446;28;19925;-72
2022/11/02 00:57:10;;;;;;;;;;;11.60;99.90;;;;;;4994014;28;20171;-71
2022/11/02 00:59:42;;;;;;;;;;;11.60;99.90;;;;;;4973885;28;19926;-72
2022/11/02 01:02:15;;;;;;;;;;;11.60;99.90;;;;;;4992328;28;19934;-75
2022/11/02 01:04:46;;;;;;;;;;;11.60;99.90;;;;;;4993289;28;19926;-72
2022/11/02 01:07:18;;;;;;;;;;;11.50;99.90;;;;;;4993314;28;20379;-71
2022/11/02 01:09:49;;;;;;;;;;;11.50;99.90;;;;;;5007705;28;19972;-72
2022/11/02 01:12:21;;;;;;;;;;;11.60;99.90;;;;;;4984105;28;20377;-75
2022/11/02 01:14:53;;;;;;;;;;;11.60;99.90;;;;;;4983090;28;20303;-72
2022/11/02 01:17:24;;;;;;;;;;;11.60;99.90;;;;;;4990407;28;19948;-72
2022/11/02 01:19:56;;;;;;;;;;;11.50;99.90;;;;;;4991511;28;20184;-73
2022/11/02 01:22:28;;;;;;;;;;;11.50;99.90;;;;;;4991529;28;19926;-73
2022/11/02 01:25:00;;;;;;;;;;;11.50;99.90;;;;;;4973025;28;20076;-73
2022/11/02 01:27:26;;;;;;;;;;;11.60;99.90;;;;;;5004507;28;20376;-74
2022/11/02 01:29:58;;;;;;;;;;;11.50;99.90;;;;;;4987962;28;19925;-74
2022/11/02 01:32:30;;;;;;;;;;;11.60;99.90;;;;;;4988691;28;20126;-74
2022/11/02 01:35:02;;;;;;;;;;;11.60;99.90;;;;;;4992253;28;19925;-73
2022/11/02 01:37:34;;;;;;;;;;;11.60;99.90;;;;;;5009995;28;19988;-74
2022/11/02 01:40:07;;;;;;;;;;;11.50;99.90;;;;;;4989325;28;19926;-73
2022/11/02 01:42:39;;;;;;;;;;;11.50;99.90;;;;;;4990863;28;19936;-72
2022/11/02 01:45:12;;;;;;;;;;;11.60;99.90;;;;;;4977305;28;19952;-72
2022/11/02 01:47:46;;;;;;;;;;;11.50;99.90;;;;;;5009659;28;20185;-74
2022/11/02 01:50:20;;;;;;;;;;;11.60;99.90;;;;;;4973989;28;19980;-73
2022/11/02 01:52:52;;;;;;;;;;;11.50;99.90;;;;;;4989596;28;19929;-74
2022/11/02 01:55:28;;;;;;;;;;;11.50;99.90;;;;;;4984432;28;19935;-73
2022/11/02 01:58:08;;;;;;;;;;;11.50;99.90;;;;;;4989374;28;20276;-73
2022/11/02 02:00:40;;;;;;;;;;;11.50;99.90;;;;;;4990177;28;20008;-72
2022/11/02 02:03:15;;;;;;;;;;;11.50;99.90;;;;;;4991790;28;19925;-73
2022/11/02 02:06:17;;;;;;;;;;;11.50;99.90;;;;;;4989672;28;19930;-73
2022/11/02 02:08:49;;;;;;;;;;;11.50;99.90;;;;;;4957753;28;19932;-75
2022/11/02 02:11:25;;;;;;;;;;;11.40;99.90;;;;;;4990616;28;19925;-73
2022/11/02 02:13:59;;;;;;;;;;;11.30;99.90;;;;;;4971755;28;19976;-74
2022/11/02 02:16:39;;;;;;;;;;;11.30;99.90;;;;;;4990523;28;19926;-73
2022/11/02 02:19:18;;;;;;;;;;;11.30;99.90;;;;;;4967654;28;19971;-72
2022/11/02 02:21:55;;;;;;;;;;;11.30;99.90;;;;;;4989874;28;19933;-73
2022/11/02 02:24:43;;;;;;;;;;;11.30;99.90;;;;;;4988353;28;19961;-72
2022/11/02 02:27:16;;;;;;;;;;;11.20;99.90;;;;;;4991026;28;19932;-74
2022/11/02 02:30:03;;;;;;;;;;;11.20;99.90;;;;;;4985436;28;19929;-72
2022/11/02 02:32:44;;;;;;;;;;;11.20;99.90;;;;;;4973417;28;20911;-74
2022/11/02 02:35:42;;;;;;;;;;;11.10;99.90;;;;;;4990444;28;19925;-73
2022/11/02 02:38:21;;;;;;;;;;;11.00;99.90;;;;;;4990330;28;19929;-74
2022/11/02 02:41:02;;;;;;;;;;;11.00;99.90;;;;;;4986492;28;19930;-74
2022/11/02 02:43:36;;;;;;;;;;;11.00;99.90;;;;;;4987913;28;19941;-74
2022/11/02 02:46:11;;;;;;;;;;;10.80;99.90;;;;;;4990261;28;19961;-74
2022/11/02 02:48:44;;;;;;;;;;;10.80;99.90;;;;;;4995009;28;19987;-73
2022/11/02 02:51:21;;;;;;;;;;;10.70;99.90;;;;;;4974809;28;19925;-74
2022/11/02 02:53:58;;;;;;;;;;;10.70;99.90;;;;;;4991297;28;20033;-73
2022/11/02 02:56:26;;;;;;;;;;;10.60;99.90;;;;;;4993220;28;20012;-73
2022/11/02 02:59:03;;;;;;;;;;;10.60;99.90;;;;;;4978573;28;19925;-74
2022/11/02 03:01:38;;;;;;;;;;;10.60;99.90;;;;;;4995645;28;19979;-72
2022/11/02 03:04:13;;;;;;;;;;;10.50;99.90;;;;;;4993909;28;19976;-73
2022/11/02 03:06:49;;;;;;;;;;;10.50;99.90;;;;;;4997186;28;19925;-73
2022/11/02 03:09:33;;;;;;;;;;;10.50;99.90;;;;;;4989314;28;20284;-73
2022/11/02 03:12:05;;;;;;;;;;;10.50;99.90;;;;;;4978023;28;20008;-73
2022/11/02 03:14:49;;;;;;;;;;;10.50;99.90;;;;;;4995222;28;19925;-72
2022/11/02 03:17:31;;;;;;;;;;;10.50;99.90;;;;;;4993936;28;19929;-74
2022/11/02 03:20:03;;;;;;;;;;;10.50;99.90;;;;;;4993380;28;20140;-74
2022/11/02 03:22:56;;;;;;;;;;;10.50;99.90;;;;;;4994492;28;19957;-73
2022/11/02 03:25:39;;;;;;;;;;;10.40;99.90;;;;;;4994106;28;19932;-74
2022/11/02 03:28:22;;;;;;;;;;;10.40;99.90;;;;;;4976838;28;19980;-73
2022/11/02 03:30:56;;;;;;;;;;;10.40;99.90;;;;;;4989973;28;19933;-74
2022/11/02 03:33:28;;;;;;;;;;;10.40;99.90;;;;;;4995175;28;19926;-73
2022/11/02 03:36:05;;;;;;;;;;;10.30;99.90;;;;;;4978991;28;19925;-73
2022/11/02 03:38:42;;;;;;;;;;;10.40;99.90;;;;;;4993347;28;20036;-73
2022/11/02 03:41:16;;;;;;;;;;;10.40;99.90;;;;;;4993237;28;20388;-73
2022/11/02 03:43:50;;;;;;;;;;;10.40;99.90;;;;;;4993515;28;19931;-74
2022/11/02 03:46:22;;;;;;;;;;;10.40;99.90;;;;;;4984097;28;20213;-73
2022/11/02 03:48:54;;;;;;;;;;;10.40;99.90;;;;;;4990174;28;19992;-74
2022/11/02 03:51:28;;;;;;;;;;;10.40;99.90;;;;;;5011448;28;19991;-73
2022/11/02 03:54:00;;;;;;;;;;;10.30;99.90;;;;;;4991586;28;19937;-73
2022/11/02 03:56:34;;;;;;;;;;;10.30;99.90;;;;;;4977736;28;19925;-74
2022/11/02 03:59:07;;;;;;;;;;;10.30;99.90;;;;;;4993003;28;19992;-73
2022/11/02 04:01:41;;;;;;;;;;;10.30;99.90;;;;;;4991681;28;19932;-73
2022/11/02 04:04:13;;;;;;;;;;;10.20;99.90;;;;;;4994668;28;19932;-74
2022/11/02 04:06:46;;;;;;;;;;;10.20;99.90;;;;;;4992236;28;19980;-74
2022/11/02 04:09:18;;;;;;;;;;;10.20;99.90;;;;;;4976416;28;19936;-72
2022/11/02 04:14:40;;;;;;;;;;;10.20;99.90;;;;;;4989869;28;19948;-73
2022/11/02 04:20:11;;;;;;;;;;;9.90;99.90;;;;;;4993560;28;19925;-71
2022/11/02 04:25:28;;;;;;;;;;;9.80;99.90;;;;;;4987147;28;20020;-73
2022/11/02 04:28:11;;;;;;;;;;;9.70;99.90;;;;;;4991188;28;19932;-74
2022/11/02 04:30:47;;;;;;;;;;;9.80;99.90;;;;;;4992399;28;19993;-73
2022/11/02 04:33:31;;;;;;;;;;;9.90;99.90;;;;;;4975821;28;20350;-72
2022/11/02 04:36:09;;;;;;;;;;;9.90;99.90;;;;;;4982436;28;20017;-73
2022/11/02 04:38:41;;;;;;;;;;;9.90;99.90;;;;;;4976537;28;20396;-73
2022/11/02 04:41:43;;;;;;;;;;;9.80;99.90;;;;;;4993593;28;19933;-74
2022/11/02 04:44:26;;;;;;;;;;;9.70;99.90;;;;;;5008090;28;19930;-72
2022/11/02 04:47:02;;;;;;;;;;;9.70;99.90;;;;;;5004285;28;19933;-74
2022/11/02 04:49:34;;;;;;;;;;;9.70;99.90;;;;;;4974674;28;19930;-73
2022/11/02 04:52:03;;;;;;;;;;;9.70;99.90;;;;;;4976766;28;19975;-77
2022/11/02 04:54:38;;;;;;;;;;;9.60;99.90;;;;;;4976901;28;19979;-75
2022/11/02 04:57:05;;;;;;;;;;;9.60;99.90;;;;;;5003432;28;19929;-75
2022/11/02 04:59:37;;;;;;;;;;;9.60;99.90;;;;;;4988017;28;19929;-75
2022/11/02 05:02:09;;;;;;;;;;;9.70;99.90;;;;;;4992303;28;19972;-74
2022/11/02 05:04:36;;;;;;;;;;;9.70;99.90;;;;;;4989015;28;19932;-75
2022/11/02 05:07:09;;;;;;;;;;;9.60;99.90;;;;;;4989953;28;20303;-73
2022/11/02 05:09:41;;;;;;;;;;;9.60;99.90;;;;;;4990659;28;19940;-75
2022/11/02 05:12:14;;;;;;;;;;;9.60;99.90;;;;;;4990192;28;20392;-74
2022/11/02 05:14:47;;;;;;;;;;;9.60;99.90;;;;;;4991742;28;20016;-73
2022/11/02 05:17:18;;;;;;;;;;;9.60;99.90;;;;;;4975310;28;19926;-76
2022/11/02 05:19:45;;;;;;;;;;;9.50;99.90;;;;;;4990386;28;19936;-73
2022/11/02 05:22:17;;;;;;;;;;;9.50;99.90;;;;;;4976408;28;19929;-76
2022/11/02 05:24:48;;;;;;;;;;;9.50;99.90;;;;;;4991761;28;19941;-74
2022/11/02 05:27:21;;;;;;;;;;;9.40;99.90;;;;;;4991546;28;19993;-73
2022/11/02 05:29:47;;;;;;;;;;;9.40;99.90;;;;;;4974315;28;20454;-71
2022/11/02 05:32:19;;;;;;;;;;;9.40;99.90;;;;;;4997470;28;19929;-72
2022/11/02 05:34:46;;;;;;;;;;;9.50;99.90;;;;;;4989503;28;19926;-72
2022/11/02 05:37:18;;;;;;;;;;;9.60;99.90;;;;;;4990737;28;19926;-74
2022/11/02 05:39:49;;;;;;;;;;;9.60;99.90;;;;;;4989353;28;20018;-75
2022/11/02 05:42:22;;;;;;;;;;;9.70;99.90;;;;;;4991495;28;19999;-75
2022/11/02 05:44:48;;;;;;;;;;;9.70;99.90;;;;;;4966948;28;19933;-76
2022/11/02 05:47:20;;;;;;;;;;;9.80;99.90;;;;;;5008911;28;19934;-73
2022/11/02 05:49:46;;;;;;;;;;;9.80;99.90;;;;;;4990163;28;20348;-76
2022/11/02 05:52:18;;;;;;;;;;;9.80;99.90;;;;;;4990685;28;20295;-75
2022/11/02 05:54:45;;;;;;;;;;;9.80;99.90;;;;;;4974972;28;19999;-76
2022/11/02 05:57:11;;;;;;;;;;;9.80;99.90;;;;;;4991124;28;19933;-74
2022/11/02 05:59:38;;;;;;;;;;;9.70;99.90;;;;;;4986724;28;19971;-73
2022/11/02 06:02:09;;;;;;;;;;;9.60;99.90;;;;;;4988585;28;19945;-74
2022/11/02 06:04:41;;;;;;;;;;;9.60;99.90;;;;;;4990070;28;19992;-74
2022/11/02 06:07:08;;;;;;;;;;;9.60;99.90;;;;;;4974843;28;19968;-74
2022/11/02 06:09:39;;;;;;;;;;;9.50;99.90;;;;;;4973499;28;19983;-75
2022/11/02 06:12:06;;;;;;;;;;;9.60;99.90;;;;;;4990443;28;19933;-75
2022/11/02 06:14:37;;;;;;;;;;;9.70;99.90;;;;;;4989920;28;19987;-74
2022/11/02 06:17:09;;;;;;;;;;;9.80;99.90;;;;;;4982135;28;19926;-74
2022/11/02 06:19:41;;;;;;;;;;;9.90;99.90;;;;;;4989381;28;19926;-73
2022/11/02 06:22:12;;;;;;;;;;;10.00;99.90;;;;;;4984821;28;19932;-73
2022/11/02 06:24:44;;;;;;;;;;;10.10;99.90;;;;;;4992307;28;19933;-73
2022/11/02 06:27:15;;;;;;;;;;;10.20;99.90;;;;;;5006890;28;20355;-73
2022/11/02 06:29:47;;;;;;;;;;;10.30;99.90;;;;;;4991460;28;19925;-73
2022/11/02 06:32:19;;;;;;;;;;;10.40;99.90;;;;;;5009278;28;19929;-73
2022/11/02 06:34:51;;;;;;;;;;;10.40;99.90;;;;;;5010397;28;19929;-75
2022/11/02 06:37:22;;;;;;;;;;;10.50;99.90;;;;;;4988507;28;19933;-73
2022/11/02 06:39:54;;;;;;;;;;;10.50;99.90;;;;;;4984232;28;20032;-73
2022/11/02 06:42:26;;;;;;;;;;;10.50;99.90;;;;;;4990571;28;20264;-74
2022/11/02 06:45:01;;;;;;;;;;;10.50;99.90;;;;;;4990570;28;19926;-73
2022/11/02 06:47:34;;;;;;;;;;;10.60;99.90;;;;;;4982970;28;19926;-72
2022/11/02 06:50:01;;;;;;;;;;;10.60;99.90;;;;;;4991253;28;19929;-73
2022/11/02 06:52:32;;;;;;;;;;;10.50;99.90;;;;;;4992451;28;19980;-73
2022/11/02 06:55:04;;;;;;;;;;;10.40;99.90;;;;;;4994480;28;19983;-73
2022/11/02 06:57:36;;;;;;;;;;;10.30;99.90;;;;;;4991061;28;19925;-73
2022/11/02 07:00:04;;;;;;;;;;;10.20;99.90;;;;;;5006668;28;19929;-74
2022/11/02 07:02:31;;;;;;;;;;;10.10;99.90;;;;;;4992149;28;20391;-73
2022/11/02 07:05:02;;;;;;;;;;;10.10;99.90;;;;;;4975590;28;20366;-75
2022/11/02 07:07:34;;;;;;;;;;;10.40;99.90;;;;;;4992215;28;19992;-75
2022/11/02 07:10:09;;;;;;;;;;;10.60;99.90;;;;;;4989866;28;19926;-75
2022/11/02 07:12:40;;;;;;;;;;;10.80;99.90;;;;;;4975459;28;20346;-73
2022/11/02 07:15:12;;;;;;;;;;;11.00;99.90;;;;;;4992475;28;19933;-73
2022/11/02 07:17:44;;;;;;;;;;;11.00;99.90;;;;;;4990832;28;19933;-73
2022/11/02 07:20:16;;;;;;;;;;;11.10;99.90;;;;;;4988370;28;19933;-73
2022/11/02 07:22:51;;;;;;;;;;;11.00;99.90;;;;;;5003474;28;19956;-72
2022/11/02 07:25:23;;;;;;;;;;;11.20;99.90;;;;;;5007679;28;19933;-75
2022/11/02 07:27:50;;;;;;;;;;;11.30;99.90;;;;;;4990252;28;20350;-73
2022/11/02 07:30:21;;;;;;;;;;;11.40;99.90;;;;;;4990834;28;20019;-72
2022/11/02 07:32:53;;;;;;;;;;;11.50;99.90;;;;;;4991949;28;19934;-71
2022/11/02 07:35:25;;;;;;;;;;;11.60;99.90;;;;;;4977793;28;21746;-73
2022/11/02 07:37:58;;;;;;;;;;;11.70;99.90;;;;;;5011523;28;19987;-72
2022/11/02 07:40:24;;;;;;;;;;;11.70;99.90;;;;;;4976901;28;19937;-72
2022/11/02 07:42:57;;;;;;;;;;;11.70;99.90;;;;;;5014064;28;19925;-73
2022/11/02 07:45:39;;;;;;;;;;;11.80;99.90;;;;;;4977494;28;19932;-73
2022/11/02 07:48:10;;;;;;;;;;;11.80;99.90;;;;;;4976640;28;19933;-74
2022/11/02 07:50:42;;;;;;;;;;;11.90;99.90;;;;;;4992135;28;20648;-74
2022/11/02 07:53:13;;;;;;;;;;;11.90;99.90;;;;;;5010326;28;19933;-72
2022/11/02 07:55:40;;;;;;;;;;;11.90;99.90;;;;;;5011493;28;19937;-72
2022/11/02 07:58:15;;;;;;;;;;;12.00;99.90;;;;;;4992872;28;19987;-72
2022/11/02 08:00:41;;;;;;;;;;;12.00;99.90;;;;;;5009302;28;19933;-73
2022/11/02 08:03:13;;;;;;;;;;;12.00;99.90;;;;;;5009685;28;19932;-73
2022/11/02 08:05:41;;;;;;;;;;;12.00;99.90;;;;;;4990522;28;19937;-73
2022/11/02 08:08:14;;;;;;;;;;;12.00;99.90;;;;;;4989631;28;19934;-74
2022/11/02 08:10:46;;;;;;;;;;;12.10;99.90;;;;;;4989476;28;19929;-73
2022/11/02 08:13:19;;;;;;;;;;;12.10;99.90;;;;;;5008174;28;19926;-72
2022/11/02 08:15:49;;;;;;;;;;;12.10;99.90;;;;;;4993591;28;19933;-73
2022/11/02 08:18:22;;;;;;;;;;;12.10;99.90;;;;;;5010290;28;19934;-72
2022/11/02 08:20:54;;;;;;;;;;;12.20;99.90;;;;;;4972056;28;19953;-72
2022/11/02 08:23:26;;;;;;;;;;;12.20;99.90;;;;;;4992938;28;19976;-75
2022/11/02 08:25:59;;;;;;;;;;;12.30;99.90;;;;;;4992568;28;19926;-75
2022/11/02 08:28:34;;;;;;;;;;;12.30;99.90;;;;;;4992740;28;19934;-73
2022/11/02 08:31:06;;;;;;;;;;;12.30;99.90;;;;;;4990767;28;19929;-72
2022/11/02 08:33:37;;;;;;;;;;;12.30;99.90;;;;;;5009433;28;19941;-71
2022/11/02 08:36:09;;;;;;;;;;;12.40;99.90;;;;;;5009025;28;19937;-73
2022/11/02 08:38:41;;;;;;;;;;;12.40;99.90;;;;;;4995962;28;19925;-72
2022/11/02 08:41:13;;;;;;;;;;;12.40;99.90;;;;;;4991424;28;19929;-74
2022/11/02 08:43:45;;;;;;;;;;;12.50;99.90;;;;;;4991047;28;19971;-73
2022/11/02 08:46:16;;;;;;;;;;;12.50;99.90;;;;;;4986298;28;20370;-72
2022/11/02 08:48:48;;;;;;;;;;;12.50;99.90;;;;;;5009419;28;19925;-73
2022/11/02 08:51:19;;;;;;;;;;;12.50;99.90;;;;;;5009290;28;19977;-73
2022/11/02 08:53:51;;;;;;;;;;;12.60;99.90;;;;;;5008267;28;19964;-75
2022/11/02 08:56:23;;;;;;;;;;;12.60;99.90;;;;;;5003754;28;19929;-76
2022/11/02 08:58:55;;;;;;;;;;;12.70;99.90;;;;;;4990181;28;19971;-73
2022/11/02 09:01:26;;;;;;;;;;;12.70;99.90;;;;;;4975848;28;19930;-73
2022/11/02 09:03:53;;;;;;;;;;;12.70;99.90;;;;;;4991859;28;19979;-73
2022/11/02 09:06:24;;;;;;;;;;;12.70;99.90;;;;;;5008960;28;19980;-74
2022/11/02 09:08:51;;;;;;;;;;;12.80;99.90;;;;;;5008373;28;19980;-73
2022/11/02 09:11:22;;;;;;;;;;;12.90;99.90;;;;;;4992053;28;19932;-75
2022/11/02 09:13:54;;;;;;;;;;;12.90;99.90;;;;;;5008159;28;20665;-73
2022/11/02 09:16:26;;;;;;;;;;;12.90;99.90;;;;;;4971314;28;19956;-73
2022/11/02 09:18:57;;;;;;;;;;;12.90;99.90;;;;;;5007634;28;20331;-73
2022/11/02 09:21:29;;;;;;;;;;;13.00;99.90;;;;;;4991206;28;19929;-74
2022/11/02 09:24:00;;;;;;;;;;;13.00;99.90;;;;;;4988073;28;19925;-75
2022/11/02 09:26:27;;;;;;;;;;;13.10;99.90;;;;;;4991442;28;20407;-74
2022/11/02 09:28:54;;;;;;;;;;;13.10;99.90;;;;;;4990332;28;20007;-73
2022/11/02 09:31:28;;;;;;;;;;;13.10;99.90;;;;;;4992776;28;19934;-74
2022/11/02 09:33:54;;;;;;;;;;;13.00;99.90;;;;;;4992525;28;19964;-73
2022/11/02 09:36:26;;;;;;;;;;;13.00;99.90;;;;;;4990780;28;19929;-73
2022/11/02 09:38:57;;;;;;;;;;;13.00;99.90;;;;;;4989672;28;20504;-72
2022/11/02 09:41:32;;;;;;;;;;;13.10;99.90;;;;;;4992227;28;20658;-73
2022/11/02 09:44:07;;;;;;;;;;;13.10;99.90;;;;;;4993415;28;19926;-73
2022/11/02 09:46:43;;;;;;;;;;;13.10;99.90;;;;;;4998971;28;20270;-75
2022/11/02 09:49:16;;;;;;;;;;;13.20;99.90;;;;;;4991227;28;20561;-75
2022/11/02 09:51:50;;;;;;;;;;;13.20;99.90;;;;;;4985345;28;20347;-73
2022/11/02 09:54:28;;;;;;;;;;;13.30;99.90;;;;;;4996969;28;19929;-73
2022/11/02 09:57:01;;;;;;;;;;;13.40;99.90;;;;;;4981905;28;19972;-75
2022/11/02 09:59:33;;;;;;;;;;;13.40;99.90;;;;;;4990513;28;20525;-74
2022/11/02 10:02:11;;;;;;;;;;;13.40;99.90;;;;;;4992705;28;19987;-73
2022/11/02 10:04:40;;;;;;;;;;;13.40;99.90;;;;;;4990516;28;20339;-73
2022/11/02 10:07:31;;;;;;;;;;;13.40;99.90;;;;;;4973280;28;20303;-74
2022/11/02 10:10:21;;;;;;;;;;;13.50;99.90;;;;;;5008099;28;19972;-72
2022/11/02 10:12:59;;;;;;;;;;;13.40;99.90;;;;;;4990979;28;19930;-74
2022/11/02 10:15:35;;;;;;;;;;;13.50;99.90;;;;;;4989371;28;19979;-73
2022/11/02 10:18:11;;;;;;;;;;;13.50;99.90;;;;;;4991579;28;19925;-73
2022/11/02 10:20:48;;;;;;;;;;;13.50;99.90;;;;;;5007877;28;19925;-73
2022/11/02 10:23:33;;;;;;;;;;;13.40;99.90;;;;;;4992530;28;19929;-74
2022/11/02 10:26:05;;;;;;;;;;;13.40;99.90;;;;;;4984372;28;19988;-74
2022/11/02 10:28:38;;;;;;;;;;;13.40;99.90;;;;;;4992732;28;19933;-76
2022/11/02 10:31:16;;;;;;;;;;;13.40;99.90;;;;;;4991936;28;19933;-74
2022/11/02 10:33:48;;;;;;;;;;;13.30;99.90;;;;;;5006903;28;20372;-72
2022/11/02 10:36:39;;;;;;;;;;;13.30;99.90;;;;;;4988705;28;20383;-71
2022/11/02 10:39:19;;;;;;;;;;;13.30;99.90;;;;;;4982431;28;19929;-72
2022/11/02 10:42:00;;;;;;;;;;;13.20;99.90;;;;;;4992719;28;19926;-74
2022/11/02 10:44:38;;;;;;;;;;;13.20;99.90;;;;;;4984952;28;19933;-73
2022/11/02 10:47:17;;;;;;;;;;;13.20;99.90;;;;;;4991111;28;19929;-73
2022/11/02 10:49:55;;;;;;;;;;;13.20;99.90;;;;;;4989357;28;20391;-72
2022/11/02 10:52:33;;;;;;;;;;;13.20;99.90;;;;;;5007877;28;19936;-74
2022/11/02 10:55:08;;;;;;;;;;;13.10;99.90;;;;;;4989160;28;19980;-74
2022/11/02 10:57:39;;;;;;;;;;;13.20;99.90;;;;;;4991962;28;19933;-75
2022/11/02 11:00:21;;;;;;;;;;;13.20;99.90;;;;;;4974656;28;19925;-73
2022/11/02 11:03:07;;;;;;;;;;;13.30;99.90;;;;;;4991926;28;19933;-73
2022/11/02 11:05:48;;;;;;;;;;;13.30;99.90;;;;;;5009847;28;19933;-72
2022/11/02 11:08:27;;;;;;;;;;;13.40;99.90;;;;;;5013143;28;19933;-73
2022/11/02 11:11:37;;;;;;;;;;;13.40;99.90;;;;;;4991858;28;19980;-74
2022/11/02 11:14:11;;;;;;;;;;;13.50;99.90;;;;;;4881624;29;19931;-73
2022/11/02 11:16:40;;;;;;;;;;;13.50;99.90;;;;;;4913797;29;19965;-73
2022/11/02 11:19:22;;;;;;;;;;;13.50;99.90;;;;;;4951833;28;20265;-73
2022/11/02 11:21:54;;;;;;;;;;;13.50;99.90;;;;;;5010985;28;19972;-73
2022/11/02 11:24:30;;;;;;;;;;;13.50;99.90;;;;;;4995365;28;19980;-74
2022/11/02 11:27:03;;;;;;;;;;;13.60;99.90;;;;;;4995705;28;19925;-73
2022/11/02 11:29:37;;;;;;;;;;;13.60;99.90;;;;;;5012121;28;19933;-73
2022/11/02 11:32:13;;;;;;;;;;;13.70;99.90;;;;;;4993615;28;19929;-73
2022/11/02 11:34:49;;;;;;;;;;;13.70;99.90;;;;;;5013108;28;20438;-75
2022/11/02 11:37:21;;;;;;;;;;;13.80;99.90;;;;;;5012562;28;19926;-72
2022/11/02 11:39:58;;;;;;;;;;;13.80;99.90;;;;;;4991752;28;19933;-74
2022/11/02 11:42:33;;;;;;;;;;;13.90;99.90;;;;;;4995933;28;19926;-73
2022/11/02 11:45:06;;;;;;;;;;;13.80;99.90;;;;;;4993979;28;19926;-72
2022/11/02 11:47:38;;;;;;;;;;;13.80;99.90;;;;;;4994936;28;19987;-72
2022/11/02 11:50:06;;;;;;;;;;;13.80;99.90;;;;;;5007864;28;19929;-73
2022/11/02 11:52:33;;;;;;;;;;;13.80;99.90;;;;;;5011177;28;19926;-72
2022/11/02 11:55:20;;;;;;;;;;;13.80;99.90;;;;;;4995205;28;19976;-71
2022/11/02 11:58:02;;;;;;;;;;;13.80;99.90;;;;;;4984797;28;19933;-73
2022/11/02 12:00:29;;;;;;;;;;;13.90;99.90;;;;;;4990110;28;19929;-75
2022/11/02 12:03:09;;;;;;;;;;;14.00;99.90;;;;;;4974546;28;20335;-75
2022/11/02 12:05:59;;;;;;;;;;;14.00;99.90;;;;;;4977429;28;19987;-75
2022/11/02 12:08:36;;;;;;;;;;;14.00;99.90;;;;;;4974699;28;19976;-73
2022/11/02 12:11:24;;;;;;;;;;;14.00;99.90;;;;;;5004702;28;21226;-73
2022/11/02 12:13:59;;;;;;;;;;;14.00;99.90;;;;;;4988149;28;19925;-73
2022/11/02 12:16:37;;;;;;;;;;;14.10;99.90;;;;;;4990342;28;19926;-73
2022/11/02 12:19:16;;;;;;;;;;;14.00;99.90;;;;;;4986262;28;20007;-75
2022/11/02 12:21:53;;;;;;;;;;;13.90;99.90;;;;;;4992507;28;20586;-74
2022/11/02 12:24:32;;;;;;;;;;;13.80;99.90;;;;;;5006749;28;19988;-74
2022/11/02 12:27:07;;;;;;;;;;;13.90;99.90;;;;;;5009076;28;19933;-73
2022/11/02 12:29:57;;;;;;;;;;;13.90;99.90;;;;;;5005774;28;19937;-73
2022/11/02 12:32:32;;;;;;;;;;;13.90;99.90;;;;;;4988753;28;20343;-73
2022/11/02 12:35:30;;;;;;;;;;;14.00;99.90;;;;;;5007213;28;20359;-73
2022/11/02 12:37:56;;;;;;;;;;;14.10;99.90;;;;;;4990421;28;19960;-73
2022/11/02 12:40:46;;;;;;;;;;;14.00;99.90;;;;;;5008131;28;19930;-74
2022/11/02 12:43:18;;;;;;;;;;;14.10;99.90;;;;;;4990873;28;20442;-75
2022/11/02 12:45:57;;;;;;;;;;;14.00;99.90;;;;;;5006700;28;19930;-73
2022/11/02 12:48:37;;;;;;;;;;;14.00;99.90;;;;;;4991511;28;20007;-73
2022/11/02 12:51:20;;;;;;;;;;;14.10;99.90;;;;;;4989828;28;19925;-73
2022/11/02 12:53:56;;;;;;;;;;;14.20;99.90;;;;;;5008548;28;19933;-75
2022/11/02 12:56:29;;;;;;;;;;;14.20;99.90;;;;;;4970492;28;19984;-73
2022/11/02 12:58:57;;;;;;;;;;;14.30;99.90;;;;;;4988590;28;19933;-73
2022/11/02 13:01:29;;;;;;;;;;;14.20;99.90;;;;;;4989180;28;19929;-73
2022/11/02 13:04:10;;;;;;;;;;;14.20;99.90;;;;;;4991700;28;19933;-75
2022/11/02 13:06:47;;;;;;;;;;;14.20;99.90;;;;;;4988736;28;20367;-74
2022/11/02 13:09:37;;;;;;;;;;;14.20;99.90;;;;;;4990306;28;19929;-74
2022/11/02 13:12:11;;;;;;;;;;;14.20;99.90;;;;;;5002910;28;19925;-75
2022/11/02 13:14:39;;;;;;;;;;;14.20;99.90;;;;;;5002250;28;19984;-75
2022/11/02 13:17:11;;;;;;;;;;;14.30;99.90;;;;;;4974187;28;19930;-75
2022/11/02 13:19:47;;;;;;;;;;;14.40;99.90;;;;;;4972595;28;19929;-77
2022/11/02 13:22:19;;;;;;;;;;;14.40;99.90;;;;;;4990723;28;19929;-75
2022/11/02 13:24:54;;;;;;;;;;;14.50;99.90;;;;;;4992997;28;19930;-76
2022/11/02 13:27:23;;;;;;;;;;;14.50;99.90;;;;;;5009047;28;19968;-75
2022/11/02 13:29:57;;;;;;;;;;;14.50;99.90;;;;;;4986945;28;19925;-75
2022/11/02 13:32:34;;;;;;;;;;;14.50;99.90;;;;;;4991778;28;19925;-75
2022/11/02 13:35:11;;;;;;;;;;;14.40;99.90;;;;;;5009573;28;20532;-75
2022/11/02 13:37:46;;;;;;;;;;;14.30;99.90;;;;;;4975238;28;19929;-75
2022/11/02 13:40:17;;;;;;;;;;;14.20;99.90;;;;;;4989716;28;19940;-75
2022/11/02 13:42:49;;;;;;;;;;;14.20;99.90;;;;;;5009853;28;20591;-75
2022/11/02 13:45:39;;;;;;;;;;;14.20;99.90;;;;;;4992616;28;20358;-75
2022/11/02 13:48:31;;;;;;;;;;;14.30;99.90;;;;;;4988612;28;20532;-75
2022/11/02 13:51:05;;;;;;;;;;;14.20;99.90;;;;;;5005321;28;19933;-75
2022/11/02 13:53:38;;;;;;;;;;;14.10;99.90;;;;;;4973587;28;19929;-73
2022/11/02 13:56:11;;;;;;;;;;;14.10;99.90;;;;;;5008833;28;19930;-74
2022/11/02 13:58:46;;;;;;;;;;;14.10;99.90;;;;;;5009214;28;19975;-74
2022/11/02 14:01:18;;;;;;;;;;;14.10;99.90;;;;;;4989299;28;20854;-74
2022/11/02 14:04:00;;;;;;;;;;;14.20;99.90;;;;;;4990984;28;19929;-74
2022/11/02 14:06:42;;;;;;;;;;;14.10;99.90;;;;;;4998925;28;19933;-74
2022/11/02 14:09:41;;;;;;;;;;;14.20;99.90;;;;;;5001976;28;19933;-75
2022/11/02 14:12:22;;;;;;;;;;;14.20;99.90;;;;;;4991273;28;19975;-73
2022/11/02 14:15:12;;;;;;;;;;;14.10;99.90;;;;;;5004720;28;20365;-74
2022/11/02 14:18:00;;;;;;;;;;;14.10;99.90;;;;;;4984122;28;19934;-75
2022/11/02 14:20:35;;;;;;;;;;;14.10;99.90;;;;;;4990088;28;19925;-73
2022/11/02 14:23:17;;;;;;;;;;;14.20;99.90;;;;;;5008227;28;20376;-75
2022/11/02 14:25:51;;;;;;;;;;;14.30;99.90;;;;;;5008448;28;19930;-74
2022/11/02 14:28:28;;;;;;;;;;;14.30;99.90;;;;;;4991431;28;19925;-73
2022/11/02 14:31:06;;;;;;;;;;;14.30;99.90;;;;;;4990461;28;19930;-74
2022/11/02 14:33:44;;;;;;;;;;;14.30;99.90;;;;;;4991343;28;19925;-73
2022/11/02 14:36:16;;;;;;;;;;;14.20;99.90;;;;;;4987257;28;20816;-72
2022/11/02 14:38:54;;;;;;;;;;;14.20;99.90;;;;;;4991253;28;19968;-74
2022/11/02 14:41:33;;;;;;;;;;;14.10;99.90;;;;;;4995008;28;19925;-74
2022/11/02 14:44:28;;;;;;;;;;;13.90;99.90;;;;;;4997704;28;19979;-72
2022/11/02 14:47:06;;;;;;;;;;;13.80;99.90;;;;;;4977764;28;20000;-72
2022/11/02 14:49:45;;;;;;;;;;;13.60;99.90;;;;;;5014205;28;19975;-72
2022/11/02 14:52:30;;;;;;;;;;;13.40;99.90;;;;;;4997644;28;19925;-72
2022/11/02 14:55:07;;;;;;;;;;;13.20;99.90;;;;;;4995580;28;19925;-72
2022/11/02 14:57:41;;;;;;;;;;;13.10;99.90;;;;;;5013703;28;19929;-75
2022/11/02 15:00:17;;;;;;;;;;;13.00;99.90;;;;;;5015708;28;19933;-76
2022/11/02 15:02:49;;;;;;;;;;;12.90;99.90;;;;;;4996921;28;19948;-72
2022/11/02 15:05:22;;;;;;;;;;;12.80;99.90;;;;;;5013857;28;19951;-74
2022/11/02 15:08:01;;;;;;;;;;;12.80;99.90;;;;;;5014448;28;19925;-72
2022/11/02 15:10:32;;;;;;;;;;;12.70;99.90;;;;;;5013550;28;19925;-74